Time;durP1;ratioP1;P1;durP2;ratioP2;P2;SDS_P1;SDS_P2;PMS_P1;PMS_P2;Temp;Humidity;BMP_temperature;BMP_pressure;BME280_temperature;BME280_humidity;BME280_pressure;Samples;Min_cycle;Max_cycle;Signal;HPM_P1;HPM_P2
2021/04/24 00:01:35;;;;;;;4.22;2.45;;;4.20;99.90;;;;;;4985267;28;20043;-90
2021/04/24 00:04:01;;;;;;;6.63;3.35;;;4.10;99.90;;;;;;4993909;28;20541;-89
2021/04/24 00:06:28;;;;;;;5.80;3.28;;;4.10;99.90;;;;;;4977648;28;20167;-89
2021/04/24 00:08:54;;;;;;;6.40;3.15;;;4.10;99.90;;;;;;4993165;28;20027;-90
2021/04/24 00:11:21;;;;;;;7.20;2.88;;;4.10;99.90;;;;;;4976687;28;20034;-89
2021/04/24 00:13:47;;;;;;;4.72;2.42;;;4.10;99.90;;;;;;4982518;28;20031;-89
2021/04/24 00:16:13;;;;;;;4.32;2.63;;;4.00;99.90;;;;;;4977533;28;20103;-89
2021/04/24 00:18:40;;;;;;;6.78;3.67;;;4.00;99.90;;;;;;4976561;28;20038;-88
2021/04/24 00:21:06;;;;;;;5.70;2.90;;;4.00;99.90;;;;;;4977163;28;20057;-88
2021/04/24 00:23:32;;;;;;;7.80;3.15;;;3.90;99.90;;;;;;4977495;28;20070;-89
2021/04/24 00:25:58;;;;;;;6.95;3.88;;;3.80;99.90;;;;;;4974113;28;20178;-88
2021/04/24 00:28:24;;;;;;;4.38;2.33;;;3.80;99.90;;;;;;4984426;28;20493;-89
2021/04/24 00:30:50;;;;;;;5.95;2.92;;;3.80;99.90;;;;;;4977280;28;20039;-89
2021/04/24 00:33:16;;;;;;;7.95;3.25;;;3.70;99.90;;;;;;4992672;28;20031;-90
2021/04/24 00:35:42;;;;;;;7.25;3.35;;;3.70;99.90;;;;;;4977089;28;20469;-90
2021/04/24 00:38:08;;;;;;;4.72;3.00;;;3.70;99.90;;;;;;4976191;28;20093;-89
2021/04/24 00:40:34;;;;;;;8.23;2.97;;;3.80;99.90;;;;;;4992878;28;20030;-89
2021/04/24 00:43:00;;;;;;;4.72;3.20;;;3.70;99.90;;;;;;4966452;28;20383;-89
2021/04/24 00:45:26;;;;;;;7.68;3.17;;;3.70;99.90;;;;;;4993974;28;20117;-88
2021/04/24 00:47:53;;;;;;;8.07;3.38;;;3.60;99.90;;;;;;4993988;28;20500;-89
2021/04/24 00:50:27;;;;;;;4.30;2.75;;;3.60;99.90;;;;;;4969121;28;20034;-90
2021/04/24 00:52:53;;;;;;;7.25;3.38;;;3.60;99.90;;;;;;4988102;28;20166;-90
2021/04/24 00:55:19;;;;;;;9.35;3.10;;;3.50;99.90;;;;;;4973065;28;20450;-88
2021/04/24 00:57:45;;;;;;;6.00;3.17;;;3.50;99.90;;;;;;4970158;28;20031;-88
2021/04/24 01:00:13;;;;;;;8.93;3.42;;;3.50;99.90;;;;;;4954825;28;20038;-89
2021/04/24 01:02:39;;;;;;;5.22;3.08;;;3.40;99.90;;;;;;4986146;28;20437;-89
2021/04/24 01:05:08;;;;;;;5.07;3.45;;;3.40;99.90;;;;;;4972355;28;20055;-89
2021/04/24 01:07:34;;;;;;;7.78;3.20;;;3.40;99.90;;;;;;4972332;28;20026;-89
2021/04/24 01:09:59;;;;;;;6.85;3.22;;;3.40;99.90;;;;;;4957371;28;20397;-88
2021/04/24 01:12:25;;;;;;;4.55;3.08;;;3.30;99.90;;;;;;4994126;28;20066;-89
2021/04/24 01:14:51;;;;;;;5.70;2.85;;;3.30;99.90;;;;;;4972686;28;20070;-89
2021/04/24 01:17:17;;;;;;;7.43;2.80;;;3.30;99.90;;;;;;4957748;28;20041;-91
2021/04/24 01:19:43;;;;;;;5.07;3.00;;;3.20;99.90;;;;;;4971331;28;20445;-89
2021/04/24 01:22:10;;;;;;;6.97;2.60;;;3.20;99.90;;;;;;4987795;28;20042;-90
2021/04/24 01:24:37;;;;;;;4.65;2.55;;;3.20;99.90;;;;;;4988469;28;20039;-89
2021/04/24 01:27:05;;;;;;;4.68;2.58;;;3.10;99.90;;;;;;4974403;28;20058;-90
2021/04/24 01:29:31;;;;;;;3.58;2.58;;;3.10;99.90;;;;;;4970702;28;20054;-89
2021/04/24 01:32:00;;;;;;;4.80;2.45;;;3.10;99.90;;;;;;4987876;28;20126;-89
2021/04/24 01:34:27;;;;;;;3.13;2.35;;;3.00;99.90;;;;;;4988680;28;20110;-90
2021/04/24 01:36:56;;;;;;;8.63;2.70;;;3.00;99.90;;;;;;4986677;28;20075;-90
2021/04/24 01:39:22;;;;;;;4.80;2.63;;;3.00;99.90;;;;;;4996488;28;20035;-91
2021/04/24 01:41:47;;;;;;;5.03;2.35;;;2.90;99.90;;;;;;4967390;28;20039;-88
2021/04/24 01:44:13;;;;;;;8.98;3.00;;;2.90;99.90;;;;;;4983592;28;20039;-90
2021/04/24 01:46:39;;;;;;;7.07;3.22;;;2.90;99.90;;;;;;4979474;28;20027;-89
2021/04/24 01:49:05;;;;;;;5.72;2.70;;;2.80;99.90;;;;;;4968143;28;20035;-87
2021/04/24 01:51:30;;;;;;;6.25;2.60;;;2.80;99.90;;;;;;4967783;28;20497;-89
2021/04/24 01:53:57;;;;;;;9.55;3.28;;;2.80;99.90;;;;;;4966662;28;20031;-91
2021/04/24 01:56:22;;;;;;;7.72;3.00;;;2.70;99.90;;;;;;4968212;28;20435;-89
2021/04/24 01:58:51;;;;;;;7.85;3.38;;;2.60;99.90;;;;;;4985417;28;20149;-89
2021/04/24 02:01:17;;;;;;;7.80;3.70;;;2.50;99.90;;;;;;4987419;28;20129;-89
2021/04/24 02:03:42;;;;;;;7.72;3.33;;;2.50;99.90;;;;;;4987536;28;20185;-90
2021/04/24 02:06:08;;;;;;;7.72;3.50;;;2.50;99.90;;;;;;4988169;28;20031;-90
2021/04/24 02:08:36;;;;;;;5.32;3.03;;;2.40;99.90;;;;;;4985893;28;20426;-89
2021/04/24 02:11:03;;;;;;;6.60;3.25;;;2.40;99.90;;;;;;4970835;28;20034;-91
2021/04/24 02:13:34;;;;;;;6.82;2.80;;;2.30;99.90;;;;;;4953850;28;20054;-88
2021/04/24 02:16:01;;;;;;;7.25;3.33;;;2.30;99.90;;;;;;4963827;28;20038;-88
2021/04/24 02:18:28;;;;;;;7.93;3.10;;;2.30;99.90;;;;;;4956920;28;20539;-90
2021/04/24 02:20:54;;;;;;;5.53;3.00;;;2.20;99.90;;;;;;4983949;28;20097;-88
2021/04/24 02:23:20;;;;;;;5.70;3.42;;;2.20;99.90;;;;;;4970964;28;20118;-87
2021/04/24 02:25:47;;;;;;;3.85;2.72;;;2.20;99.90;;;;;;4970060;28;20405;-89
2021/04/24 02:28:14;;;;;;;8.02;2.97;;;2.20;99.90;;;;;;4984631;28;20040;-90
2021/04/24 02:30:41;;;;;;;7.00;3.22;;;2.20;99.90;;;;;;4992257;28;20030;-88
2021/04/24 02:33:07;;;;;;;6.93;3.65;;;2.20;99.90;;;;;;4970369;28;20378;-91
2021/04/24 02:35:53;;;;;;;5.30;2.72;;;2.20;99.90;;;;;;4971444;28;20037;-90
2021/04/24 02:38:21;;;;;;;4.47;2.95;;;2.10;99.90;;;;;;4982789;28;20031;-90
2021/04/24 02:40:48;;;;;;;5.43;3.13;;;2.10;99.90;;;;;;4985597;28;20043;-90
2021/04/24 02:43:15;;;;;;;8.05;3.35;;;2.10;99.90;;;;;;4970248;28;20706;-90
2021/04/24 02:45:41;;;;;;;7.07;3.40;;;2.10;99.90;;;;;;4971281;28;20026;-89
2021/04/24 02:48:07;;;;;;;7.40;3.70;;;2.10;99.90;;;;;;4984286;28;20394;-88
2021/04/24 02:50:36;;;;;;;4.43;2.80;;;2.10;99.90;;;;;;4974378;28;20453;-88
2021/04/24 02:53:02;;;;;;;6.63;2.63;;;2.00;99.90;;;;;;4970580;28;20108;-90
2021/04/24 02:55:28;;;;;;;5.22;2.65;;;2.00;99.90;;;;;;4970904;28;20050;-87
2021/04/24 02:57:54;;;;;;;4.45;3.03;;;2.00;99.90;;;;;;4985896;28;20429;-88
2021/04/24 03:00:22;;;;;;;6.47;3.63;;;2.00;99.90;;;;;;4955666;28;20042;-90
2021/04/24 03:02:57;;;;;;;8.05;3.83;;;2.00;99.90;;;;;;4985769;28;20101;-88
2021/04/24 03:05:23;;;;;;;;;;;1.90;99.90;;;;;;4987553;28;20640;-89
2021/04/24 03:07:48;;;;;;;6.03;3.50;;;1.90;99.90;;;;;;4982187;28;19921;-90
2021/04/24 03:10:14;;;;;;;6.65;3.70;;;1.90;99.90;;;;;;4969415;28;20089;-88
2021/04/24 03:12:40;;;;;;;6.97;3.17;;;1.90;99.90;;;;;;4985767;28;20031;-88
2021/04/24 03:15:06;;;;;;;6.32;3.05;;;1.90;99.90;;;;;;4969998;28;20043;-89
2021/04/24 03:17:33;;;;;;;6.75;3.47;;;1.90;99.90;;;;;;4988703;28;20055;-90
2021/04/24 03:19:58;;;;;;;4.78;3.00;;;1.90;99.90;;;;;;4953050;28;20390;-89
2021/04/24 03:22:24;;;;;;;4.47;2.72;;;1.90;99.90;;;;;;4991553;28;20058;-90
2021/04/24 03:24:50;;;;;;;8.07;2.97;;;1.90;99.90;;;;;;4984077;28;20062;-88
2021/04/24 03:27:16;;;;;;;7.15;3.08;;;1.90;99.90;;;;;;4985820;28;20061;-89
2021/04/24 03:29:42;;;;;;;6.63;3.35;;;1.80;99.90;;;;;;4996621;28;20043;-89
2021/04/24 03:32:07;;;;;;;8.80;3.38;;;1.80;99.90;;;;;;4971466;28;20050;-89
2021/04/24 03:34:34;;;;;;;5.95;3.40;;;1.80;99.90;;;;;;4990710;28;20027;-89
2021/04/24 03:37:00;;;;;;;11.18;3.67;;;1.70;99.90;;;;;;4988980;28;20393;-89
2021/04/24 03:39:26;;;;;;;8.55;3.95;;;1.70;99.90;;;;;;4983790;28;20035;-89
2021/04/24 03:41:52;;;;;;;7.13;3.22;;;1.70;99.90;;;;;;4985983;28;20039;-89
2021/04/24 03:44:18;;;;;;;7.45;3.33;;;1.70;99.90;;;;;;4989927;28;20043;-89
2021/04/24 03:46:44;;;;;;;5.63;3.00;;;1.60;99.90;;;;;;4986853;28;20034;-89
2021/04/24 03:49:09;;;;;;;11.23;4.03;;;1.60;99.90;;;;;;4967373;28;20174;-88
2021/04/24 03:51:35;;;;;;;9.35;3.67;;;1.60;99.90;;;;;;4992981;28;20054;-89
2021/04/24 03:54:01;;;;;;;5.63;3.20;;;1.60;99.90;;;;;;4990375;28;20035;-91
2021/04/24 03:56:27;;;;;;;7.13;3.75;;;1.60;99.90;;;;;;4990922;28;20035;-90
2021/04/24 03:58:53;;;;;;;5.10;3.15;;;1.60;99.90;;;;;;4986439;28;20151;-88
2021/04/24 04:01:18;;;;;;;6.45;3.65;;;1.60;99.90;;;;;;4949331;28;20482;-90
2021/04/24 04:03:44;;;;;;;7.50;3.42;;;1.50;99.90;;;;;;4973182;28;20055;-90
2021/04/24 04:06:10;;;;;;;8.40;3.92;;;1.50;99.90;;;;;;4975155;28;20493;-90
2021/04/24 04:08:36;;;;;;;9.05;3.83;;;1.50;99.90;;;;;;4988246;28;20035;-90
2021/04/24 04:11:01;;;;;;;6.40;3.50;;;1.50;99.90;;;;;;4972753;28;20035;-89
2021/04/24 04:13:27;;;;;;;6.75;3.47;;;1.50;99.90;;;;;;4973181;28;20038;-89
2021/04/24 04:15:53;;;;;;;9.63;4.13;;;1.50;99.90;;;;;;4973679;28;20077;-91
2021/04/24 04:18:20;;;;;;;5.50;3.45;;;1.50;99.90;;;;;;4985378;28;20066;-91
2021/04/24 04:20:53;;;;;;;6.82;3.60;;;1.60;99.90;;;;;;4984849;28;20133;-91
2021/04/24 04:23:19;;;;;;;8.13;3.72;;;1.60;99.90;;;;;;4989028;28;20031;-88
2021/04/24 04:25:47;;;;;;;7.40;3.90;;;1.60;99.90;;;;;;4973398;28;20034;-91
2021/04/24 04:28:13;;;;;;;6.13;3.28;;;1.60;99.90;;;;;;4986113;28;20516;-92
2021/04/24 04:30:41;;;;;;;4.40;2.83;;;1.60;99.90;;;;;;4988423;28;20030;-90
2021/04/24 04:33:08;;;;;;;6.65;2.60;;;1.60;99.90;;;;;;4978528;28;20093;-89
2021/04/24 04:35:35;;;;;;;6.38;2.78;;;1.60;99.90;;;;;;4972436;28;20038;-90
2021/04/24 04:38:01;;;;;;;4.80;2.75;;;1.70;99.90;;;;;;4971815;28;20066;-90
2021/04/24 04:40:27;;;;;;;5.95;3.35;;;1.70;99.90;;;;;;4972534;28;20067;-90
2021/04/24 04:42:53;;;;;;;6.45;2.67;;;1.80;99.90;;;;;;4969377;28;20058;-90
2021/04/24 04:45:19;;;;;;;7.60;3.13;;;1.80;99.90;;;;;;4988623;28;20461;-88
2021/04/24 04:47:46;;;;;;;6.40;3.15;;;1.80;99.90;;;;;;4972135;28;20402;-89
2021/04/24 04:50:16;;;;;;;10.02;3.40;;;1.90;99.90;;;;;;4971200;28;20074;-88
2021/04/24 04:52:43;;;;;;;5.75;3.00;;;1.90;99.90;;;;;;4987899;28;20023;-90
2021/04/24 04:55:09;;;;;;;10.25;3.92;;;2.00;99.90;;;;;;4972774;28;20556;-87
2021/04/24 04:57:35;;;;;;;6.03;2.92;;;2.00;99.90;;;;;;4971842;28;20057;-86
2021/04/24 05:00:03;;;;;;;10.18;4.68;;;2.00;99.90;;;;;;4972313;28;20609;-88
2021/04/24 05:02:28;;;;;;;84.10;31.67;;;2.10;99.90;;;;;;4987247;28;20101;-87
2021/04/24 05:04:54;;;;;;;66.15;24.45;;;2.10;99.90;;;;;;4978333;28;20487;-85
2021/04/24 05:07:20;;;;;;;53.55;21.08;;;2.20;99.90;;;;;;4987114;28;20019;-88
2021/04/24 05:09:46;;;;;;;41.22;16.52;;;2.20;99.90;;;;;;4971493;28;20037;-89
2021/04/24 05:12:11;;;;;;;38.50;15.07;;;2.30;99.90;;;;;;4992391;28;20141;-88
2021/04/24 05:14:37;;;;;;;31.80;12.50;;;2.30;99.90;;;;;;4993667;28;20050;-87
2021/04/24 05:17:06;;;;;;;19.08;8.68;;;2.40;99.90;;;;;;4973003;28;20112;-88
2021/04/24 05:19:32;;;;;;;9.38;5.32;;;2.40;99.90;;;;;;4968740;28;20047;-87
2021/04/24 05:21:58;;;;;;;8.82;4.00;;;2.50;99.90;;;;;;4961996;28;20035;-88
2021/04/24 05:24:24;;;;;;;9.15;4.47;;;2.50;99.90;;;;;;4985958;28;20066;-86
2021/04/24 05:26:50;;;;;;;7.85;3.75;;;2.60;99.90;;;;;;4993829;28;20486;-87
2021/04/24 05:29:16;;;;;;;5.97;3.50;;;2.70;99.90;;;;;;4989894;28;20042;-88
2021/04/24 05:31:42;;;;;;;8.32;3.83;;;2.80;99.90;;;;;;4967769;28;20090;-88
2021/04/24 05:34:08;;;;;;;8.55;4.15;;;3.00;99.90;;;;;;4995966;28;20073;-88
2021/04/24 05:36:34;;;;;;;8.90;4.20;;;3.20;99.90;;;;;;4972104;28;20062;-89
2021/04/24 05:39:00;;;;;;;8.38;4.13;;;3.50;99.90;;;;;;4970239;28;20482;-88
2021/04/24 05:41:26;;;;;;;8.45;3.88;;;3.70;99.90;;;;;;4987368;28;20039;-88
2021/04/24 05:43:54;;;;;;;9.18;3.83;;;4.00;99.90;;;;;;4971135;28;20034;-88
2021/04/24 05:46:21;;;;;;;9.73;3.58;;;4.40;99.90;;;;;;4992365;28;20030;-89
2021/04/24 05:48:48;;;;;;;7.53;3.30;;;4.90;99.90;;;;;;4970973;28;20561;-90
2021/04/24 05:51:15;;;;;;;6.78;3.42;;;5.40;99.90;;;;;;4986193;28;20019;-88
2021/04/24 05:53:41;;;;;;;8.07;4.05;;;5.90;99.90;;;;;;4970805;28;20560;-88
2021/04/24 05:56:07;;;;;;;6.95;3.63;;;6.40;99.90;;;;;;4978809;28;20125;-89
2021/04/24 05:58:34;;;;;;;7.80;3.92;;;6.70;99.90;;;;;;4986763;28;20477;-90
2021/04/24 06:01:00;;;;;;;11.65;3.95;;;7.00;99.90;;;;;;4970270;28;20125;-89
2021/04/24 06:03:25;;;;;;;6.57;3.42;;;7.30;99.90;;;;;;4977607;28;20077;-89
2021/04/24 06:05:51;;;;;;;4.57;2.65;;;7.60;99.90;;;;;;4955691;28;20506;-87
2021/04/24 06:08:18;;;;;;;7.53;3.88;;;7.70;99.90;;;;;;4984905;28;20038;-88
2021/04/24 06:10:43;;;;;;;11.60;3.88;;;7.90;99.90;;;;;;4989098;28;20397;-88
2021/04/24 06:13:09;;;;;;;8.88;3.80;;;7.90;99.90;;;;;;4987080;28;20037;-88
2021/04/24 06:15:35;;;;;;;8.65;3.88;;;7.80;99.90;;;;;;4971090;28;20058;-87
2021/04/24 06:18:01;;;;;;;6.63;3.75;;;7.90;99.90;;;;;;4964370;28;20121;-89
2021/04/24 06:20:27;;;;;;;8.43;3.47;;;8.00;99.90;;;;;;4980994;28;20126;-88
2021/04/24 06:22:52;;;;;;;8.68;4.13;;;8.30;99.90;;;;;;4969173;28;20482;-87
2021/04/24 06:25:19;;;;;;;6.97;4.22;;;8.60;99.90;;;;;;4986499;28;20041;-89
2021/04/24 06:27:45;;;;;;;7.25;3.50;;;8.80;99.90;;;;;;4986742;28;20029;-88
2021/04/24 06:30:13;;;;;;;7.18;3.33;;;9.20;99.90;;;;;;4968641;28;20119;-87
2021/04/24 06:32:39;;;;;;;10.90;3.30;;;9.70;99.90;;;;;;4985654;28;20030;-89
2021/04/24 06:35:06;;;;;;;6.25;3.53;;;10.10;99.90;;;;;;4968134;28;20494;-86
2021/04/24 06:37:33;;;;;;;7.97;2.95;;;10.50;99.90;;;;;;4982542;28;20457;-88
2021/04/24 06:39:58;;;;;;;6.72;3.05;;;10.90;99.90;;;;;;4987478;28;20053;-89
2021/04/24 06:42:24;;;;;;;6.00;3.38;;;11.10;99.90;;;;;;4985236;28;20501;-87
2021/04/24 06:44:50;;;;;;;8.45;4.10;;;11.40;99.60;;;;;;4967741;28;20398;-87
2021/04/24 06:47:16;;;;;;;6.25;2.95;;;11.50;96.80;;;;;;4969870;28;20592;-90
2021/04/24 06:49:42;;;;;;;5.38;3.10;;;11.80;95.60;;;;;;4963604;28;20033;-90
2021/04/24 06:52:08;;;;;;;6.60;3.00;;;12.10;94.30;;;;;;4984729;28;20081;-88
2021/04/24 06:54:34;;;;;;;4.93;3.03;;;12.20;91.40;;;;;;4972102;28;20035;-88
2021/04/24 06:57:00;;;;;;;6.00;2.78;;;12.40;92.10;;;;;;4968679;28;20077;-89
2021/04/24 06:59:26;;;;;;;4.65;2.50;;;12.60;86.20;;;;;;4985312;28;20100;-87
2021/04/24 07:01:52;;;;;;;6.05;3.00;;;12.50;86.60;;;;;;4969136;28;20620;-90
2021/04/24 07:04:18;;;;;;;6.35;3.05;;;12.60;86.90;;;;;;4969781;28;22102;-89
2021/04/24 07:06:44;;;;;;;8.90;3.90;;;12.70;82.10;;;;;;4974319;28;20074;-87
2021/04/24 07:09:10;;;;;;;5.70;3.10;;;13.00;81.80;;;;;;4982643;28;20437;-89
2021/04/24 07:11:36;;;;;;;11.75;5.80;;;13.20;81.80;;;;;;4985252;28;20173;-89
2021/04/24 07:14:01;;;;;;;9.80;3.90;;;13.50;77.20;;;;;;4968967;28;20038;-88
2021/04/24 07:16:27;;;;;;;9.95;4.05;;;13.70;80.40;;;;;;4986775;28;20089;-87
2021/04/24 07:18:53;;;;;;;6.97;3.30;;;14.00;76.60;;;;;;4983849;28;20035;-89
2021/04/24 07:21:18;;;;;;;8.50;4.80;;;14.10;75.10;;;;;;4986398;28;20035;-88
2021/04/24 07:23:44;;;;;;;6.47;3.50;;;14.00;73.10;;;;;;4986623;28;20031;-89
2021/04/24 07:26:10;;;;;;;8.60;3.03;;;14.30;73.40;;;;;;4968376;28;20027;-89
2021/04/24 07:28:36;;;;;;;6.53;3.55;;;14.70;72.70;;;;;;4968343;28;20046;-88
2021/04/24 07:31:02;;;;;;;8.98;4.28;;;15.10;71.00;;;;;;4983524;28;20035;-89
2021/04/24 07:33:28;;;;;;;7.95;3.00;;;15.50;68.80;;;;;;4986531;28;20064;-89
2021/04/24 07:35:54;;;;;;;5.35;2.80;;;15.70;68.00;;;;;;4969845;28;20053;-89
2021/04/24 07:38:21;;;;;;;8.00;2.97;;;16.00;64.40;;;;;;4967706;28;20031;-89
2021/04/24 07:40:48;;;;;;;4.18;2.72;;;16.30;60.40;;;;;;4971627;28;20470;-87
2021/04/24 07:43:14;;;;;;;7.13;3.17;;;16.30;60.70;;;;;;4969427;28;20035;-90
2021/04/24 07:45:41;;;;;;;4.18;2.90;;;16.40;61.50;;;;;;4954021;28;20413;-89
2021/04/24 07:48:07;;;;;;;11.32;5.88;;;16.70;59.60;;;;;;4984850;28;20085;-89
2021/04/24 07:50:34;;;;;;;6.75;2.80;;;16.30;56.60;;;;;;4973058;28;20069;-88
2021/04/24 07:53:00;;;;;;;4.88;2.92;;;16.00;56.90;;;;;;4966267;28;20026;-88
2021/04/24 07:55:27;;;;;;;8.60;3.13;;;16.00;58.30;;;;;;4969864;28;20023;-88
2021/04/24 07:57:53;;;;;;;4.60;3.22;;;16.00;58.20;;;;;;4965304;28;20043;-88
2021/04/24 08:00:19;;;;;;;6.15;3.10;;;15.60;56.50;;;;;;4969759;28;20031;-89
2021/04/24 08:02:45;;;;;;;6.47;3.45;;;15.50;58.20;;;;;;4974709;28;20027;-89
2021/04/24 08:05:12;;;;;;;6.00;3.17;;;15.50;61.30;;;;;;4985381;28;20547;-89
2021/04/24 08:07:38;;;;;;;10.07;3.35;;;15.30;62.20;;;;;;4984101;28;20097;-89
2021/04/24 08:10:04;;;;;;;7.53;3.90;;;15.10;58.40;;;;;;4969590;28;20035;-90
2021/04/24 08:12:30;;;;;;;4.55;2.72;;;14.60;59.90;;;;;;4995475;28;20030;-88
2021/04/24 08:14:57;;;;;;;11.30;3.75;;;14.40;60.50;;;;;;4992326;28;20042;-86
2021/04/24 08:17:22;;;;;;;6.38;3.13;;;14.10;61.80;;;;;;4965056;28;20058;-89
2021/04/24 08:19:48;;;;;;;7.03;2.95;;;13.90;59.80;;;;;;4971524;28;20489;-91
2021/04/24 08:22:14;;;;;;;5.00;2.83;;;13.80;62.50;;;;;;4988064;28;20038;-89
2021/04/24 08:24:39;;;;;;;9.07;3.38;;;13.70;60.10;;;;;;4973122;28;20501;-90
2021/04/24 08:27:06;;;;;;;19.13;7.60;;;13.70;58.80;;;;;;4987612;28;20453;-89
2021/04/24 08:29:32;;;;;;;6.60;3.65;;;13.60;61.20;;;;;;4971346;28;20437;-89
2021/04/24 08:31:58;;;;;;;6.65;3.47;;;13.50;65.40;;;;;;4955479;28;20035;-89
2021/04/24 08:34:26;;;;;;;12.00;5.85;;;13.50;63.50;;;;;;4989191;28;20047;-91
2021/04/24 08:36:53;;;;;;;13.70;5.03;;;13.50;62.90;;;;;;4985471;28;20046;-88
2021/04/24 08:39:19;;;;;;;6.13;3.22;;;13.30;62.10;;;;;;4970850;28;20121;-90
2021/04/24 08:41:46;;;;;;;9.93;4.00;;;13.20;62.50;;;;;;4968094;28;20059;-91
2021/04/24 08:44:17;;;;;;;13.13;5.40;;;13.10;61.20;;;;;;4971229;28;20513;-89
2021/04/24 08:46:46;;;;;;;12.48;5.65;;;12.90;64.50;;;;;;4969533;28;20426;-86
2021/04/24 08:49:16;;;;;;;7.13;3.22;;;12.80;64.30;;;;;;4971873;28;20117;-88
2021/04/24 08:51:43;;;;;;;7.45;3.28;;;12.80;61.20;;;;;;4968717;28;20423;-88
2021/04/24 08:54:14;;;;;;;7.35;3.20;;;12.80;65.50;;;;;;4986724;28;20043;-89
2021/04/24 08:56:40;;;;;;;8.23;3.38;;;12.90;62.90;;;;;;4978375;28;20046;-87
2021/04/24 08:59:06;;;;;;;7.85;3.58;;;13.00;63.30;;;;;;4960071;28;20031;-87
2021/04/24 09:01:33;;;;;;;11.05;5.65;;;13.10;62.20;;;;;;4972179;28;20414;-85
2021/04/24 09:03:59;;;;;;;9.02;4.38;;;13.00;63.50;;;;;;4966605;28;20041;-87
2021/04/24 09:06:24;;;;;;;10.27;4.25;;;12.70;61.90;;;;;;4969353;28;20035;-87
2021/04/24 09:08:57;;;;;;;9.35;4.15;;;12.60;66.60;;;;;;4987254;28;20031;-89
2021/04/24 09:11:24;;;;;;;9.35;3.38;;;12.60;66.80;;;;;;4967944;28;20030;-91
2021/04/24 09:14:07;;;;;;;7.78;4.22;;;12.80;63.90;;;;;;4984688;28;20074;-87
2021/04/24 09:16:34;;;;;;;7.40;4.18;;;12.70;63.10;;;;;;4981221;28;20039;-87
2021/04/24 09:19:01;;;;;;;5.00;3.35;;;12.60;64.70;;;;;;4971000;28;20030;-87
2021/04/24 09:21:29;;;;;;;8.52;3.58;;;12.70;65.20;;;;;;4963466;28;20054;-87
2021/04/24 09:23:56;;;;;;;4.85;3.00;;;12.70;67.60;;;;;;4978998;28;20046;-85
2021/04/24 09:26:30;;;;;;;9.32;4.18;;;12.80;66.70;;;;;;4965066;28;20097;-88
2021/04/24 09:29:02;;;;;;;9.93;3.80;;;13.00;67.10;;;;;;4975418;28;20196;-88
2021/04/24 09:31:29;;;;;;;9.50;3.83;;;13.00;60.90;;;;;;4983964;28;20035;-89
2021/04/24 09:34:00;;;;;;;8.27;3.88;;;12.80;61.80;;;;;;4984050;28;20648;-90
2021/04/24 09:36:34;;;;;;;10.45;3.92;;;12.90;64.20;;;;;;4967774;28;20696;-87
2021/04/24 09:39:03;;;;;;;11.30;3.72;;;12.90;67.40;;;;;;4982286;28;20062;-86
2021/04/24 09:41:33;;;;;;;6.63;3.50;;;13.10;65.30;;;;;;4982321;28;20064;-89
2021/04/24 09:44:05;;;;;;;5.80;3.17;;;13.20;60.80;;;;;;4985693;28;20035;-89
2021/04/24 09:46:51;;;;;;;6.70;4.07;;;13.40;65.50;;;;;;4990270;28;20425;-87
2021/04/24 09:49:27;;;;;;;11.32;4.35;;;13.50;60.10;;;;;;4965488;28;20129;-89
2021/04/24 09:52:01;;;;;;;6.22;3.20;;;13.70;65.00;;;;;;4978336;28;20050;-87
2021/04/24 09:54:33;;;;;;;8.43;4.15;;;13.80;61.90;;;;;;4979079;28;20038;-89
2021/04/24 09:57:03;;;;;;;10.63;4.15;;;13.90;59.00;;;;;;4966051;28;20118;-88
2021/04/24 09:59:30;;;;;;;6.50;3.70;;;14.00;58.10;;;;;;4985218;28;20035;-87
2021/04/24 10:01:58;;;;;;;5.22;3.42;;;14.00;61.10;;;;;;4965911;28;20094;-87
2021/04/24 10:04:24;;;;;;;8.20;4.20;;;13.90;59.60;;;;;;4956732;28;20027;-86
2021/04/24 10:06:53;;;;;;;8.80;4.38;;;13.90;61.60;;;;;;4975136;28;20485;-89
2021/04/24 10:09:24;;;;;;;11.52;4.75;;;13.80;57.80;;;;;;4984408;28;20130;-91
2021/04/24 10:12:03;;;;;;;8.68;3.72;;;13.70;58.30;;;;;;4956300;28;20497;-88
2021/04/24 10:14:36;;;;;;;9.23;3.72;;;13.50;61.10;;;;;;4975593;28;20039;-90
2021/04/24 10:17:05;;;;;;;10.65;3.80;;;13.50;63.90;;;;;;4981346;28;20205;-90
2021/04/24 10:19:32;;;;;;;14.02;4.45;;;13.70;63.50;;;;;;4964621;28;20031;-87
2021/04/24 10:21:58;;;;;;;8.82;4.13;;;13.70;60.80;;;;;;4962909;28;20041;-89
2021/04/24 10:24:27;;;;;;;10.80;4.53;;;13.70;64.10;;;;;;4980070;28;20058;-89
2021/04/24 10:26:54;;;;;;;6.68;4.20;;;13.70;59.90;;;;;;4965148;28;20031;-87
2021/04/24 10:29:21;;;;;;;6.82;3.85;;;13.70;63.10;;;;;;4968201;28;20590;-90
2021/04/24 10:31:48;;;;;;;11.20;4.63;;;13.80;63.70;;;;;;4964871;28;20573;-91
2021/04/24 10:34:14;;;;;;;8.55;4.00;;;13.90;60.10;;;;;;4981734;28;20089;-88
2021/04/24 10:36:41;;;;;;;8.63;4.00;;;14.00;59.10;;;;;;4963650;28;20039;-90
2021/04/24 10:39:10;;;;;;;8.27;3.90;;;14.20;59.10;;;;;;4963990;28;20050;-88
2021/04/24 10:41:40;;;;;;;11.35;4.43;;;14.10;59.60;;;;;;4950526;28;20037;-89
2021/04/24 10:44:11;;;;;;;7.45;3.00;;;14.10;59.40;;;;;;4960102;28;20118;-89
2021/04/24 10:46:53;;;;;;;11.20;4.43;;;14.30;63.70;;;;;;4963727;28;20101;-89
2021/04/24 10:49:19;;;;;;;9.73;5.03;;;14.30;56.10;;;;;;4983792;28;20038;-90
2021/04/24 10:51:57;;;;;;;12.02;4.25;;;14.20;58.60;;;;;;4982024;28;20397;-91
2021/04/24 10:54:24;;;;;;;8.10;4.47;;;14.20;57.40;;;;;;4972931;28;20110;-89
2021/04/24 10:56:50;;;;;;;9.30;4.60;;;14.00;59.10;;;;;;4965480;28;20042;-89
2021/04/24 10:59:34;;;;;;;9.23;4.63;;;13.90;59.20;;;;;;4982190;28;20035;-91
2021/04/24 11:02:10;;;;;;;7.43;3.80;;;14.10;59.20;;;;;;4965933;28;20125;-90
2021/04/24 11:04:47;;;;;;;6.40;3.97;;;14.20;61.70;;;;;;4965108;28;20046;-89
2021/04/24 11:07:21;;;;;;;7.13;3.88;;;14.30;59.80;;;;;;4980024;28;20019;-91
2021/04/24 11:10:13;;;;;;;6.55;4.00;;;14.50;59.60;;;;;;4964478;28;20033;-88
2021/04/24 11:12:41;;;;;;;8.95;4.10;;;14.70;56.10;;;;;;4977966;28;20062;-89
2021/04/24 11:15:08;;;;;;;9.50;4.68;;;14.80;56.80;;;;;;4968683;28;20031;-89
2021/04/24 11:17:36;;;;;;;8.73;3.88;;;14.90;56.60;;;;;;4964074;28;20039;-86
2021/04/24 11:20:03;;;;;;;7.22;3.95;;;15.00;59.20;;;;;;4962997;28;20409;-88
2021/04/24 11:22:36;;;;;;;8.63;3.95;;;15.10;56.90;;;;;;4983355;28;20066;-90
2021/04/24 11:25:17;;;;;;;9.48;4.25;;;15.20;56.80;;;;;;4967338;28;20192;-89
2021/04/24 11:28:06;;;;;;;10.20;4.43;;;15.30;56.70;;;;;;4982604;28;20054;-88
2021/04/24 11:31:00;;;;;;;9.80;3.88;;;15.30;56.40;;;;;;4962055;28;20027;-89
2021/04/24 11:33:40;;;;;;;7.90;4.88;;;15.20;53.20;;;;;;4973824;28;20113;-89
2021/04/24 11:36:27;;;;;;;8.98;4.50;;;14.90;57.30;;;;;;4981240;28;20034;-88
2021/04/24 11:41:30;;;;;;;10.93;4.00;;;14.90;57.20;;;;;;4976132;28;20033;-88
2021/04/24 11:43:57;;;;;;;6.75;4.00;;;15.10;53.20;;;;;;4976795;28;20501;-89
2021/04/24 11:46:37;;;;;;;8.43;4.07;;;15.20;55.90;;;;;;4982826;28;20090;-87
2021/04/24 11:49:07;;;;;;;7.93;4.03;;;15.50;53.50;;;;;;4967463;28;20061;-87
2021/04/24 11:51:35;;;;;;;10.55;3.80;;;15.70;54.80;;;;;;4977405;28;20647;-89
2021/04/24 11:54:03;;;;;;;9.65;3.80;;;16.10;55.90;;;;;;4965723;28;20543;-91
2021/04/24 11:56:29;;;;;;;8.10;4.20;;;16.30;53.40;;;;;;4969641;28;20027;-90
2021/04/24 11:58:55;;;;;;;7.25;4.38;;;16.50;53.20;;;;;;4965637;28;20045;-89
2021/04/24 12:01:22;;;;;;;9.77;5.03;;;16.60;51.60;;;;;;4964269;28;20042;-88
2021/04/24 12:03:47;;;;;;;9.48;4.47;;;16.50;49.40;;;;;;4985050;28;20075;-87
2021/04/24 12:06:14;;;;;;;8.32;3.53;;;16.50;52.60;;;;;;4967375;28;20035;-89
2021/04/24 12:08:40;;;;;;;5.18;3.72;;;16.70;53.00;;;;;;4982333;28;20536;-91
2021/04/24 12:11:10;;;;;;;7.47;3.90;;;16.80;52.30;;;;;;4964683;28;20055;-88
2021/04/24 12:13:36;;;;;;;8.98;3.50;;;16.90;51.50;;;;;;4985580;28;20170;-89
2021/04/24 12:16:02;;;;;;;8.00;3.95;;;16.90;52.90;;;;;;4984169;28;20038;-91
2021/04/24 12:18:31;;;;;;;6.85;4.00;;;17.10;51.50;;;;;;4970082;28;20034;-90
2021/04/24 12:20:57;;;;;;;9.55;3.67;;;17.20;49.40;;;;;;4968812;28;20043;-90
2021/04/24 12:23:23;;;;;;;7.03;3.45;;;17.20;51.10;;;;;;4969158;28;20089;-90
2021/04/24 12:25:50;;;;;;;5.57;3.67;;;17.30;51.80;;;;;;4967746;28;20038;-86
2021/04/24 12:28:19;;;;;;;5.20;3.47;;;17.50;51.40;;;;;;4979174;28;20054;-90
2021/04/24 12:30:47;;;;;;;5.97;3.30;;;17.60;52.10;;;;;;4986319;28;20031;-91
2021/04/24 12:33:20;;;;;;;12.60;3.55;;;17.90;50.80;;;;;;4970616;28;20031;-89
2021/04/24 12:35:53;;;;;;;5.72;3.38;;;18.00;49.00;;;;;;4992538;28;20082;-88
2021/04/24 12:38:22;;;;;;;5.90;3.17;;;18.00;48.70;;;;;;4967680;28;20042;-89
2021/04/24 12:40:53;;;;;;;8.20;3.40;;;18.00;48.70;;;;;;4981198;28;20374;-89
2021/04/24 12:43:25;;;;;;;6.85;3.38;;;18.10;50.50;;;;;;4970823;28;20027;-90
2021/04/24 12:45:54;;;;;;;7.78;3.55;;;18.30;48.60;;;;;;4983852;28;20078;-87
2021/04/24 12:48:25;;;;;;;6.97;3.67;;;18.50;47.10;;;;;;4968178;28;20058;-87
2021/04/24 12:50:59;;;;;;;6.68;3.42;;;18.60;46.00;;;;;;4970265;28;20027;-90
2021/04/24 12:53:31;;;;;;;7.00;3.75;;;18.70;48.40;;;;;;4985212;28;20030;-88
2021/04/24 12:56:09;;;;;;;6.88;3.60;;;19.10;47.60;;;;;;4975420;28;20070;-90